createdAt,value
2017-11-24T00:00:56.462Z,1000.68
2017-11-24T00:01:56.443Z,1000.66
2017-11-24T00:02:56.425Z,1000.65
2017-11-24T00:03:56.407Z,1000.65
2017-11-24T00:04:56.391Z,1000.61
2017-11-24T00:05:56.371Z,1000.59
2017-11-24T00:06:56.356Z,1000.59
2017-11-24T00:07:56.540Z,1000.6
2017-11-24T00:08:56.324Z,1000.65
2017-11-24T00:09:56.303Z,1000.61
2017-11-24T00:10:56.284Z,1000.63
2017-11-24T00:11:56.282Z,1000.59
2017-11-24T00:12:56.251Z,1000.57
2017-11-24T00:13:56.234Z,1000.57
2017-11-24T00:14:56.218Z,1000.57
2017-11-24T00:15:56.200Z,1000.57
2017-11-24T00:16:56.182Z,1000.56
2017-11-24T00:17:56.165Z,1000.52
2017-11-24T00:18:56.148Z,1000.58
2017-11-24T00:19:56.135Z,1000.6
2017-11-24T00:20:56.115Z,1000.57
2017-11-24T00:21:56.097Z,1000.54
2017-11-24T00:22:56.081Z,1000.53
2017-11-24T00:23:56.068Z,1000.48
2017-11-24T00:24:56.046Z,1000.4
2017-11-24T00:25:56.028Z,1000.38
2017-11-24T00:26:56.013Z,1000.39
2017-11-24T00:27:55.994Z,1000.42
2017-11-24T00:28:55.978Z,1000.36
2017-11-24T00:29:55.961Z,1000.35
2017-11-24T00:30:55.944Z,1000.35
2017-11-24T00:31:55.925Z,1000.4
2017-11-24T00:32:55.911Z,1000.37
2017-11-24T00:33:55.892Z,1000.37
2017-11-24T00:34:55.875Z,1000.34
2017-11-24T00:35:55.859Z,1000.31
2017-11-24T00:36:55.844Z,1000.35
2017-11-24T00:37:55.826Z,1000.33
2017-11-24T00:38:55.807Z,1000.34
2017-11-24T00:39:55.789Z,1000.31
2017-11-24T00:40:55.776Z,1000.29
2017-11-24T00:41:55.759Z,1000.28
2017-11-24T00:42:55.741Z,1000.27
2017-11-24T00:43:55.720Z,1000.28
2017-11-24T00:44:55.706Z,1000.25
2017-11-24T00:45:55.691Z,1000.25
2017-11-24T00:46:55.671Z,1000.24
2017-11-24T00:47:55.661Z,1000.22
2017-11-24T00:48:55.643Z,1000.24
2017-11-24T00:49:55.626Z,1000.22
2017-11-24T00:50:55.600Z,1000.22
2017-11-24T00:51:55.586Z,1000.21
2017-11-24T00:52:55.572Z,1000.24
2017-11-24T00:53:55.552Z,1000.27
2017-11-24T00:54:55.534Z,1000.25
2017-11-24T00:55:55.518Z,1000.24
2017-11-24T00:56:55.500Z,1000.27
2017-11-24T00:57:55.491Z,1000.31
2017-11-24T00:58:55.469Z,1000.32
2017-11-24T00:59:55.474Z,1000.35
2017-11-24T01:00:55.432Z,1000.35
2017-11-24T01:01:55.415Z,1000.3
2017-11-24T01:02:55.398Z,1000.27
2017-11-24T01:03:55.381Z,1000.26
2017-11-24T01:04:55.367Z,1000.27
2017-11-24T01:05:55.349Z,1000.3
2017-11-24T01:06:55.336Z,1000.36
2017-11-24T01:07:55.313Z,1000.32
2017-11-24T01:08:55.301Z,1000.24
2017-11-24T01:09:55.282Z,1000.23
2017-11-24T01:10:55.269Z,1000.2
2017-11-24T01:11:55.245Z,1000.14
2017-11-24T01:12:55.231Z,1000.12
2017-11-24T01:13:55.210Z,1000.11
2017-11-24T01:14:55.195Z,1000.09
2017-11-24T01:15:55.176Z,1000.09
2017-11-24T01:16:55.161Z,1000.11
2017-11-24T01:17:55.145Z,1000.11
2017-11-24T01:18:55.125Z,1000.11
2017-11-24T01:19:55.109Z,1000.14
2017-11-24T01:20:55.093Z,1000.17
2017-11-24T01:21:55.077Z,1000.1
2017-11-24T01:22:55.059Z,1000.09
2017-11-24T01:23:55.041Z,1000.02
2017-11-24T01:24:55.025Z,1000.04
2017-11-24T01:25:55.008Z,1000.04
2017-11-24T01:26:54.990Z,1000.11
2017-11-24T01:27:54.978Z,1000.13
2017-11-24T01:28:54.957Z,1000.08
2017-11-24T01:29:54.943Z,1000.03
2017-11-24T01:30:54.923Z,1000.03
2017-11-24T01:31:54.908Z,1000.05
2017-11-24T01:32:54.889Z,1000.05
2017-11-24T01:33:54.873Z,1000.04
2017-11-24T01:34:54.856Z,1000.01
2017-11-24T01:35:54.839Z,1000.01
2017-11-24T01:36:54.822Z,1000.03
2017-11-24T01:37:54.805Z,1000.01
2017-11-24T01:38:54.796Z,1000.01
2017-11-24T01:39:54.771Z,1000.06
2017-11-24T01:40:54.756Z,999.99
2017-11-24T01:41:54.739Z,1000.01
2017-11-24T01:42:54.723Z,1000
2017-11-24T01:43:54.706Z,999.98
2017-11-24T01:44:54.689Z,999.99
2017-11-24T01:45:54.670Z,999.97
2017-11-24T01:46:54.654Z,999.94
2017-11-24T01:47:54.637Z,999.96
2017-11-24T01:48:54.621Z,999.93
2017-11-24T01:49:54.606Z,999.85
2017-11-24T01:50:54.589Z,999.85
2017-11-24T01:51:54.570Z,999.86
2017-11-24T01:52:54.555Z,999.82
2017-11-24T01:53:54.538Z,999.77
2017-11-24T01:54:54.519Z,999.75
2017-11-24T01:55:54.502Z,999.67
2017-11-24T01:56:54.486Z,999.62
2017-11-24T01:57:54.469Z,999.6
2017-11-24T01:58:54.454Z,999.57
2017-11-24T01:59:54.438Z,999.57
2017-11-24T02:00:54.421Z,999.54
2017-11-24T02:01:54.405Z,999.48
2017-11-24T02:02:54.387Z,999.46
2017-11-24T02:03:54.371Z,999.45
2017-11-24T02:04:54.352Z,999.45
2017-11-24T02:05:54.337Z,999.44
2017-11-24T02:06:54.319Z,999.42
2017-11-24T02:07:54.301Z,999.39
2017-11-24T02:08:54.287Z,999.42
2017-11-24T02:09:54.269Z,999.42
2017-11-24T02:10:54.252Z,999.44
2017-11-24T02:11:54.235Z,999.4
2017-11-24T02:12:54.220Z,999.4
2017-11-24T02:13:54.201Z,999.34
2017-11-24T02:14:54.186Z,999.34
2017-11-24T02:15:54.169Z,999.41
2017-11-24T02:16:54.152Z,999.45
2017-11-24T02:17:54.137Z,999.47
2017-11-24T02:18:54.117Z,999.38
2017-11-24T02:19:54.102Z,999.36
2017-11-24T02:20:54.084Z,999.29
2017-11-24T02:21:54.067Z,999.33
2017-11-24T02:22:54.053Z,999.31
2017-11-24T02:23:54.035Z,999.36
2017-11-24T02:24:54.019Z,999.3
2017-11-24T02:25:54.001Z,999.34
2017-11-24T02:26:53.986Z,999.24
2017-11-24T02:27:53.969Z,999.17
2017-11-24T02:28:53.951Z,999.16
2017-11-24T02:29:53.935Z,999.11
2017-11-24T02:30:53.918Z,999.14
2017-11-24T02:31:53.902Z,999.14
2017-11-24T02:32:53.885Z,999.1
2017-11-24T02:33:53.870Z,999.07
2017-11-24T02:34:53.850Z,999.03
2017-11-24T02:35:53.839Z,999.01
2017-11-24T02:36:53.824Z,999
2017-11-24T02:37:53.800Z,998.88
2017-11-24T02:38:53.788Z,998.92
2017-11-24T02:39:53.767Z,998.92
2017-11-24T02:40:53.751Z,998.93
2017-11-24T02:41:53.736Z,998.92
2017-11-24T02:42:53.717Z,998.95
2017-11-24T02:43:53.700Z,998.88
2017-11-24T02:44:53.682Z,998.92
2017-11-24T02:45:53.667Z,998.9
2017-11-24T02:46:53.655Z,998.88
2017-11-24T02:47:53.644Z,998.91
2017-11-24T02:48:53.621Z,998.91
2017-11-24T02:49:53.606Z,998.92
2017-11-24T02:50:53.582Z,998.92
2017-11-24T02:51:53.567Z,998.95
2017-11-24T02:52:53.549Z,998.96
2017-11-24T02:53:53.531Z,999
2017-11-24T02:54:53.515Z,999.02
2017-11-24T02:55:53.498Z,999.04
2017-11-24T02:56:53.480Z,999.07
2017-11-24T02:57:53.464Z,999.02
2017-11-24T02:58:53.447Z,998.99
2017-11-24T02:59:53.432Z,999.03
2017-11-24T03:00:53.415Z,999
2017-11-24T03:01:53.396Z,999.02
2017-11-24T03:02:53.379Z,999.05
2017-11-24T03:03:53.364Z,999.13
2017-11-24T03:04:53.345Z,999.13
2017-11-24T03:05:53.329Z,999.16
2017-11-24T03:06:53.310Z,999.12
2017-11-24T03:07:53.296Z,999.16
2017-11-24T03:08:53.276Z,999.17
2017-11-24T03:09:53.259Z,999.19
2017-11-24T03:10:53.246Z,999.09
2017-11-24T03:11:53.225Z,999.09
2017-11-24T03:12:53.207Z,999.09
2017-11-24T03:13:53.189Z,999.09
2017-11-24T03:14:53.173Z,999.11
2017-11-24T03:15:53.155Z,999.1
2017-11-24T03:16:53.136Z,999.12
2017-11-24T03:17:53.121Z,999.08
2017-11-24T03:18:53.102Z,999.05
2017-11-24T03:19:53.086Z,999.04
2017-11-24T03:20:53.068Z,998.98
2017-11-24T03:21:53.050Z,998.92
2017-11-24T03:22:53.032Z,998.84
2017-11-24T03:23:53.014Z,998.77
2017-11-24T03:24:52.999Z,998.8
2017-11-24T03:25:52.979Z,998.8
2017-11-24T03:26:52.962Z,998.82
2017-11-24T03:27:52.945Z,998.83
2017-11-24T03:28:52.926Z,998.86
2017-11-24T03:29:52.910Z,998.87
2017-11-24T03:30:52.894Z,998.79
2017-11-24T03:31:52.872Z,998.79
2017-11-24T03:32:52.855Z,998.75
2017-11-24T03:33:52.837Z,998.74
2017-11-24T03:34:52.822Z,998.78
2017-11-24T03:35:52.800Z,998.76
2017-11-24T03:36:52.786Z,998.86
2017-11-24T03:37:52.766Z,998.82
2017-11-24T03:38:52.748Z,998.85
2017-11-24T03:39:52.731Z,998.82
2017-11-24T03:40:52.712Z,998.82
2017-11-24T03:41:52.695Z,998.84
2017-11-24T03:42:52.677Z,998.87
2017-11-24T03:43:52.660Z,998.9
2017-11-24T03:44:52.642Z,998.88
2017-11-24T03:45:52.623Z,998.91
2017-11-24T03:46:52.606Z,998.95
2017-11-24T03:47:52.589Z,998.88
2017-11-24T03:48:52.570Z,998.84
2017-11-24T03:49:52.553Z,998.82
2017-11-24T03:50:52.536Z,998.73
2017-11-24T03:51:52.519Z,998.71
2017-11-24T03:52:52.500Z,998.71
2017-11-24T03:53:52.482Z,998.69
2017-11-24T03:54:52.465Z,998.66
2017-11-24T03:55:52.445Z,998.65
2017-11-24T03:56:52.429Z,998.66
2017-11-24T03:57:52.411Z,998.56
2017-11-24T03:58:52.401Z,998.56
2017-11-24T03:59:52.376Z,998.55
2017-11-24T04:00:52.360Z,998.57
2017-11-24T04:01:52.350Z,998.5
2017-11-24T04:02:52.326Z,998.49
2017-11-24T04:03:52.307Z,998.49
2017-11-24T04:04:52.287Z,998.51
2017-11-24T04:05:52.276Z,998.49
2017-11-24T04:06:52.252Z,998.48
2017-11-24T04:07:52.233Z,998.5
2017-11-24T04:08:52.419Z,998.48
2017-11-24T04:09:52.204Z,998.49
2017-11-24T04:10:52.182Z,998.53
2017-11-24T04:11:52.166Z,998.56
2017-11-24T04:12:52.148Z,998.58
2017-11-24T04:13:52.130Z,998.58
2017-11-24T04:14:52.110Z,998.64
2017-11-24T04:15:52.101Z,998.66
2017-11-24T04:16:52.076Z,998.6
2017-11-24T04:17:52.059Z,998.55
2017-11-24T04:18:52.043Z,998.47
2017-11-24T04:19:52.024Z,998.36
2017-11-24T04:20:52.008Z,998.23
2017-11-24T04:21:51.995Z,998.23
2017-11-24T04:22:51.972Z,998.24
2017-11-24T04:23:51.953Z,998.17
2017-11-24T04:24:51.936Z,998.17
2017-11-24T04:25:51.918Z,998.16
2017-11-24T04:26:51.901Z,998.13
2017-11-24T04:27:51.882Z,998.06
2017-11-24T04:28:51.864Z,998.01
2017-11-24T04:29:51.849Z,998.01
2017-11-24T04:30:51.829Z,998.02
2017-11-24T04:31:51.817Z,998
2017-11-24T04:32:51.796Z,997.97
2017-11-24T04:33:51.780Z,997.98
2017-11-24T04:34:51.762Z,997.93
2017-11-24T04:35:51.742Z,997.93
2017-11-24T04:36:51.723Z,997.86
2017-11-24T04:37:51.706Z,997.79
2017-11-24T04:38:51.688Z,997.69
2017-11-24T04:39:51.671Z,997.62
2017-11-24T04:40:51.656Z,997.56
2017-11-24T04:41:51.636Z,997.56
2017-11-24T04:42:51.619Z,997.45
2017-11-24T04:43:51.604Z,997.47
2017-11-24T04:44:51.584Z,997.43
2017-11-24T04:45:51.566Z,997.45
2017-11-24T04:46:51.576Z,997.42
2017-11-24T04:47:51.541Z,997.35
2017-11-24T04:48:51.514Z,997.3
2017-11-24T04:49:51.494Z,997.19
2017-11-24T04:50:51.479Z,997.11
2017-11-24T04:51:51.461Z,997.04
2017-11-24T04:52:51.442Z,997.08
2017-11-24T04:53:51.437Z,997.09
2017-11-24T04:54:51.407Z,997.05
2017-11-24T04:55:51.389Z,997.04
2017-11-24T04:56:51.372Z,996.96
2017-11-24T04:57:51.354Z,996.88
2017-11-24T04:58:51.336Z,996.82
2017-11-24T04:59:51.320Z,996.78
2017-11-24T05:00:51.302Z,996.81
2017-11-24T05:01:51.283Z,996.83
2017-11-24T05:02:51.269Z,996.9
2017-11-24T05:03:51.249Z,996.97
2017-11-24T05:04:51.231Z,997.01
2017-11-24T05:05:51.213Z,996.98
2017-11-24T05:06:51.194Z,996.92
2017-11-24T05:07:51.178Z,996.99
2017-11-24T05:08:51.161Z,996.98
2017-11-24T05:09:51.144Z,997.03
2017-11-24T05:10:51.126Z,997.02
2017-11-24T05:11:51.110Z,997.01
2017-11-24T05:12:51.090Z,996.96
2017-11-24T05:13:51.073Z,996.84
2017-11-24T05:14:51.056Z,996.81
2017-11-24T05:15:51.037Z,996.86
2017-11-24T05:16:51.018Z,996.8
2017-11-24T05:17:51.010Z,996.87
2017-11-24T05:18:50.992Z,996.87
2017-11-24T05:19:50.968Z,996.85
2017-11-24T05:20:50.950Z,996.84
2017-11-24T05:21:50.931Z,996.9
2017-11-24T05:22:50.925Z,996.89
2017-11-24T05:23:50.898Z,996.86
2017-11-24T05:24:50.880Z,996.85
2017-11-24T05:25:50.870Z,996.76
2017-11-24T05:26:50.845Z,996.72
2017-11-24T05:27:50.833Z,996.75
2017-11-24T05:28:50.810Z,996.73
2017-11-24T05:29:50.792Z,996.75
2017-11-24T05:30:50.789Z,996.74
2017-11-24T05:31:50.758Z,996.76
2017-11-24T05:32:50.741Z,996.8
2017-11-24T05:33:50.724Z,996.85
2017-11-24T05:34:50.705Z,996.91
2017-11-24T05:35:50.689Z,996.96
2017-11-24T05:36:50.683Z,996.95
2017-11-24T05:37:50.653Z,996.98
2017-11-24T05:38:50.635Z,997
2017-11-24T05:39:50.617Z,997.08
2017-11-24T05:40:50.601Z,997.15
2017-11-24T05:41:50.582Z,997.19
2017-11-24T05:42:50.564Z,997.3
2017-11-24T05:43:50.548Z,997.39
2017-11-24T05:44:50.530Z,997.46
2017-11-24T05:45:50.514Z,997.51
2017-11-24T05:46:50.496Z,997.51
2017-11-24T05:47:50.480Z,997.56
2017-11-24T05:48:50.462Z,997.58
2017-11-24T05:49:50.442Z,997.58
2017-11-24T05:50:50.427Z,997.54
2017-11-24T05:51:50.409Z,997.51
2017-11-24T05:52:50.390Z,997.51
2017-11-24T05:53:50.373Z,997.55
2017-11-24T05:54:50.358Z,997.59
2017-11-24T05:55:50.338Z,997.61
2017-11-24T05:56:50.322Z,997.73
2017-11-24T05:57:50.305Z,997.8
2017-11-24T05:58:50.286Z,997.9
2017-11-24T05:59:50.270Z,998.05
2017-11-24T06:00:50.251Z,998.18
2017-11-24T06:01:50.234Z,998.25
2017-11-24T06:02:50.240Z,998.43
2017-11-24T06:03:50.199Z,998.57
2017-11-24T06:04:50.182Z,998.6
2017-11-24T06:05:50.166Z,998.62
2017-11-24T06:06:50.149Z,998.54
2017-11-24T06:07:50.129Z,998.3
2017-11-24T06:08:50.315Z,998.12
2017-11-24T06:09:50.096Z,998.07
2017-11-24T06:10:50.076Z,998.11
2017-11-24T06:11:50.058Z,998.16
2017-11-24T06:12:50.043Z,998.21
2017-11-24T06:13:50.025Z,998.21
2017-11-24T06:14:50.008Z,998.22
2017-11-24T06:15:49.988Z,998.24
2017-11-24T06:16:49.977Z,998.25
2017-11-24T06:17:49.964Z,998.32
2017-11-24T06:18:49.937Z,998.42
2017-11-24T06:19:49.919Z,998.43
2017-11-24T06:20:49.903Z,998.38
2017-11-24T06:21:49.890Z,998.34
2017-11-24T06:22:49.867Z,998.33
2017-11-24T06:23:49.849Z,998.35
2017-11-24T06:24:49.834Z,998.32
2017-11-24T06:25:49.815Z,998.28
2017-11-24T06:26:49.798Z,998.23
2017-11-24T06:27:49.780Z,998.24
2017-11-24T06:28:49.763Z,998.27
2017-11-24T06:29:49.746Z,998.29
2017-11-24T06:30:49.729Z,998.32
2017-11-24T06:31:49.711Z,998.34
2017-11-24T06:32:49.692Z,998.36
2017-11-24T06:33:49.674Z,998.38
2017-11-24T06:34:49.666Z,998.43
2017-11-24T06:35:49.639Z,998.49
2017-11-24T06:36:49.621Z,998.57
2017-11-24T06:37:49.605Z,998.5
2017-11-24T06:38:49.589Z,998.47
2017-11-24T06:39:49.569Z,998.37
2017-11-24T06:40:49.553Z,998.28
2017-11-24T06:41:49.540Z,998.18
2017-11-24T06:42:49.518Z,998.16
2017-11-24T06:43:49.500Z,998.06
2017-11-24T06:44:49.482Z,998.03
2017-11-24T06:45:49.465Z,997.96
2017-11-24T06:46:49.453Z,997.91
2017-11-24T06:47:49.429Z,997.85
2017-11-24T06:48:49.410Z,997.75
2017-11-24T06:49:49.394Z,997.78
2017-11-24T06:50:49.375Z,997.77
2017-11-24T06:51:49.361Z,997.73
2017-11-24T06:52:49.343Z,997.77
2017-11-24T06:53:49.328Z,997.72
2017-11-24T06:54:49.305Z,997.7
2017-11-24T06:55:49.292Z,997.64
2017-11-24T06:56:49.271Z,997.59
2017-11-24T06:57:49.254Z,997.57
2017-11-24T06:58:49.235Z,997.55
2017-11-24T06:59:49.219Z,997.5
2017-11-24T07:00:49.200Z,997.48
2017-11-24T07:01:49.184Z,997.46
2017-11-24T07:02:49.165Z,997.45
2017-11-24T07:03:49.148Z,997.51
2017-11-24T07:04:49.133Z,997.44
2017-11-24T07:05:49.114Z,997.45
2017-11-24T07:06:49.095Z,997.5
2017-11-24T07:07:49.079Z,997.53
2017-11-24T07:08:49.073Z,997.53
2017-11-24T07:09:49.043Z,997.54
2017-11-24T07:10:49.026Z,997.52
2017-11-24T07:11:49.010Z,997.54
2017-11-24T07:12:48.991Z,997.5
2017-11-24T07:13:48.971Z,997.51
2017-11-24T07:14:48.956Z,997.51
2017-11-24T07:15:48.937Z,997.57
2017-11-24T07:16:48.927Z,997.61
2017-11-24T07:17:48.903Z,997.62
2017-11-24T07:18:48.885Z,997.65
2017-11-24T07:19:48.867Z,997.61
2017-11-24T07:20:48.851Z,997.7
2017-11-24T07:21:48.837Z,997.74
2017-11-24T07:22:48.817Z,997.72
2017-11-24T07:23:48.798Z,997.67
2017-11-24T07:24:48.780Z,997.65
2017-11-24T07:25:48.762Z,997.67
2017-11-24T07:26:48.745Z,997.72
2017-11-24T07:27:48.726Z,997.72
2017-11-24T07:28:48.709Z,997.76
2017-11-24T07:29:48.691Z,997.72
2017-11-24T07:30:48.676Z,997.72
2017-11-24T07:31:48.658Z,997.78
2017-11-24T07:32:48.707Z,997.91
2017-11-24T07:33:48.631Z,998.1
2017-11-24T07:34:48.605Z,998.24
2017-11-24T07:35:48.585Z,998.33
2017-11-24T07:36:48.570Z,998.37
2017-11-24T07:37:48.551Z,998.48
2017-11-24T07:38:48.530Z,998.53
2017-11-24T07:39:48.515Z,998.6
2017-11-24T07:40:48.496Z,998.68
2017-11-24T07:41:48.477Z,998.69
2017-11-24T07:42:48.459Z,998.67
2017-11-24T07:43:48.442Z,998.68
2017-11-24T07:44:48.430Z,998.74
2017-11-24T07:45:48.407Z,998.76
2017-11-24T07:46:48.388Z,998.87
2017-11-24T07:47:48.375Z,998.9
2017-11-24T07:48:48.375Z,998.9
2017-11-24T07:49:48.336Z,998.94
2017-11-24T07:50:48.317Z,999
2017-11-24T07:51:48.299Z,998.98
2017-11-24T07:52:48.281Z,998.87
2017-11-24T07:53:48.264Z,998.85
2017-11-24T07:54:48.244Z,998.87
2017-11-24T07:55:48.229Z,998.9
2017-11-24T07:56:48.210Z,999.03
2017-11-24T07:57:48.235Z,999.03
2017-11-24T07:58:48.179Z,999.09
2017-11-24T07:59:48.157Z,999.1
2017-11-24T08:00:48.138Z,999.13
2017-11-24T08:01:48.120Z,999.12
2017-11-24T08:02:48.103Z,999.15
2017-11-24T08:03:48.085Z,999.12
2017-11-24T08:04:48.068Z,999.13
2017-11-24T08:05:48.049Z,999.1
2017-11-24T08:06:48.031Z,999.15
2017-11-24T08:07:48.014Z,999.19
2017-11-24T08:08:48.198Z,999.2
2017-11-24T08:09:47.985Z,999.21
2017-11-24T08:10:47.960Z,999.27
2017-11-24T08:11:47.942Z,999.37
2017-11-24T08:12:47.938Z,999.4
2017-11-24T08:13:47.908Z,999.39
2017-11-24T08:14:47.892Z,999.39
2017-11-24T08:15:47.873Z,999.37
2017-11-24T08:16:47.853Z,999.34
2017-11-24T08:17:47.842Z,999.32
2017-11-24T08:18:47.823Z,999.3
2017-11-24T08:19:47.801Z,999.3
2017-11-24T08:20:47.785Z,999.29
2017-11-24T08:21:47.766Z,999.29
2017-11-24T08:22:47.754Z,999.29
2017-11-24T08:23:47.730Z,999.26
2017-11-24T08:24:47.712Z,999.29
2017-11-24T08:25:47.696Z,999.34
2017-11-24T08:26:47.681Z,999.44
2017-11-24T08:27:47.678Z,999.51
2017-11-24T08:28:47.649Z,999.49
2017-11-24T08:29:47.624Z,999.49
2017-11-24T08:30:47.606Z,999.46
2017-11-24T08:31:47.589Z,999.4
2017-11-24T08:32:47.572Z,999.35
2017-11-24T08:33:47.554Z,999.36
2017-11-24T08:34:47.534Z,999.35
2017-11-24T08:35:47.521Z,999.31
2017-11-24T08:36:47.504Z,999.3
2017-11-24T08:37:47.488Z,999.3
2017-11-24T08:38:47.469Z,999.28
2017-11-24T08:39:47.449Z,999.34
2017-11-24T08:40:47.431Z,999.38
2017-11-24T08:41:47.415Z,999.43
2017-11-24T08:42:47.396Z,999.46
2017-11-24T08:43:47.382Z,999.43
2017-11-24T08:44:47.365Z,999.51
2017-11-24T08:45:47.345Z,999.54
2017-11-24T08:46:47.327Z,999.6
2017-11-24T08:47:47.309Z,999.66
2017-11-24T08:48:47.291Z,999.65
2017-11-24T08:49:47.276Z,999.69
2017-11-24T08:50:47.257Z,999.7
2017-11-24T08:51:47.238Z,999.65
2017-11-24T08:52:47.221Z,999.62
2017-11-24T08:53:47.203Z,999.65
2017-11-24T08:54:47.189Z,999.64
2017-11-24T08:55:47.173Z,999.61
2017-11-24T08:56:47.155Z,999.6
2017-11-24T08:57:47.142Z,999.61
2017-11-24T08:58:47.121Z,999.64
2017-11-24T08:59:47.112Z,999.66
2017-11-24T09:00:47.084Z,999.69
2017-11-24T09:01:47.066Z,999.64
2017-11-24T09:02:47.047Z,999.61
2017-11-24T09:03:47.029Z,999.63
2017-11-24T09:04:47.013Z,999.64
2017-11-24T09:05:47.002Z,999.65
2017-11-24T09:06:46.979Z,999.63
2017-11-24T09:07:46.964Z,999.66
2017-11-24T09:08:46.946Z,999.62
2017-11-24T09:09:46.926Z,999.65
2017-11-24T09:10:46.909Z,999.69
2017-11-24T09:11:46.898Z,999.69
2017-11-24T09:12:46.877Z,999.7
2017-11-24T09:13:46.858Z,999.74
2017-11-24T09:14:46.842Z,999.73
2017-11-24T09:15:46.825Z,999.75
2017-11-24T09:16:46.808Z,999.76
2017-11-24T09:17:46.790Z,999.81
2017-11-24T09:18:46.774Z,999.84
2017-11-24T09:19:46.758Z,999.83
2017-11-24T09:20:46.742Z,999.84
2017-11-24T09:21:46.723Z,999.88
2017-11-24T09:22:46.706Z,999.91
2017-11-24T09:23:46.693Z,999.98
2017-11-24T09:24:46.676Z,999.92
2017-11-24T09:25:46.655Z,999.96
2017-11-24T09:26:46.639Z,1000.02
2017-11-24T09:27:46.623Z,999.99
2017-11-24T09:28:46.605Z,999.95
2017-11-24T09:29:46.591Z,999.99
2017-11-24T09:30:46.573Z,1000.03
2017-11-24T09:31:46.556Z,999.99
2017-11-24T09:32:46.542Z,1000.03
2017-11-24T09:33:46.520Z,1000.08
2017-11-24T09:34:46.504Z,1000.11
2017-11-24T09:35:46.487Z,1000.09
2017-11-24T09:36:46.470Z,1000.12
2017-11-24T09:37:46.457Z,1000.14
2017-11-24T09:38:46.446Z,1000.14
2017-11-24T09:39:46.422Z,1000.15
2017-11-24T09:40:46.404Z,1000.14
2017-11-24T09:41:46.389Z,1000.18
2017-11-24T09:42:46.369Z,1000.25
2017-11-24T09:43:46.355Z,1000.22
2017-11-24T09:44:46.340Z,1000.21
2017-11-24T09:45:46.322Z,1000.23
2017-11-24T09:46:46.303Z,1000.25
2017-11-24T09:47:46.288Z,1000.25
2017-11-24T09:48:46.270Z,1000.26
2017-11-24T09:49:46.255Z,1000.26
2017-11-24T09:50:46.238Z,1000.28
2017-11-24T09:51:46.220Z,1000.36
2017-11-24T09:52:46.206Z,1000.37
2017-11-24T09:53:46.193Z,1000.43
2017-11-24T09:54:46.169Z,1000.49
2017-11-24T09:55:46.155Z,1000.45
2017-11-24T09:56:46.138Z,1000.46
2017-11-24T09:57:46.122Z,1000.46
2017-11-24T09:58:46.107Z,1000.49
2017-11-24T09:59:46.086Z,1000.49
2017-11-24T10:00:46.070Z,1000.52
2017-11-24T10:01:46.056Z,1000.49
2017-11-24T10:02:46.035Z,1000.48
2017-11-24T10:03:46.018Z,1000.47
2017-11-24T10:04:46.019Z,1000.45
2017-11-24T10:05:45.983Z,1000.49
2017-11-24T10:06:45.971Z,1000.51
2017-11-24T10:07:46.113Z,1000.53
2017-11-24T10:08:46.140Z,1000.53
2017-11-24T10:09:45.917Z,1000.51
2017-11-24T10:10:45.898Z,1000.54
2017-11-24T10:11:45.881Z,1000.54
2017-11-24T10:12:45.871Z,1000.62
2017-11-24T10:13:45.848Z,1000.63
2017-11-24T10:14:45.831Z,1000.62
2017-11-24T10:15:45.821Z,1000.65
2017-11-24T10:16:45.799Z,1000.69
2017-11-24T10:17:45.781Z,1000.69
2017-11-24T10:18:45.763Z,1000.67
2017-11-24T10:19:45.747Z,1000.67
2017-11-24T10:20:45.729Z,1000.66
2017-11-24T10:21:45.713Z,1000.66
2017-11-24T10:22:45.696Z,1000.68
2017-11-24T10:23:45.677Z,1000.63
2017-11-24T10:24:45.661Z,1000.69
2017-11-24T10:25:45.644Z,1000.7
2017-11-24T10:26:45.626Z,1000.74
2017-11-24T10:27:45.609Z,1000.7
2017-11-24T10:28:45.593Z,1000.72
2017-11-24T10:29:45.577Z,1000.73
2017-11-24T10:30:45.558Z,1000.72
2017-11-24T10:31:45.541Z,1000.74
2017-11-24T10:32:45.523Z,1000.74
2017-11-24T10:33:45.507Z,1000.8
2017-11-24T10:34:45.492Z,1000.78
2017-11-24T10:35:45.475Z,1000.78
2017-11-24T10:36:45.457Z,1000.74
2017-11-24T10:37:45.437Z,1000.78
2017-11-24T10:38:45.424Z,1000.79
2017-11-24T10:39:45.406Z,1000.76
2017-11-24T10:40:45.388Z,1000.74
2017-11-24T10:41:45.371Z,1000.75
2017-11-24T10:42:45.355Z,1000.75
2017-11-24T10:43:45.336Z,1000.78
2017-11-24T10:44:45.318Z,1000.82
2017-11-24T10:45:45.300Z,1000.8
2017-11-24T10:46:45.284Z,1000.83
2017-11-24T10:47:45.268Z,1000.82
2017-11-24T10:48:45.250Z,1000.84
2017-11-24T10:49:45.233Z,1000.81
2017-11-24T10:50:45.215Z,1000.81
2017-11-24T10:51:45.198Z,1000.79
2017-11-24T10:52:45.181Z,1000.83
2017-11-24T10:53:45.164Z,1000.88
2017-11-24T10:54:45.148Z,1000.87
2017-11-24T10:55:45.132Z,1000.85
2017-11-24T10:56:45.113Z,1000.84
2017-11-24T10:57:45.096Z,1000.88
2017-11-24T10:58:45.080Z,1000.91
2017-11-24T10:59:45.060Z,1000.93
2017-11-24T11:00:45.044Z,1000.95
2017-11-24T11:01:45.028Z,1000.97
2017-11-24T11:02:45.019Z,1000.99
2017-11-24T11:03:44.992Z,1001.03
2017-11-24T11:04:44.976Z,1001.01
2017-11-24T11:05:44.973Z,1001.05
2017-11-24T11:06:44.942Z,1001.1
2017-11-24T11:07:44.948Z,1001.06
2017-11-24T11:08:44.904Z,1001.11
2017-11-24T11:09:44.889Z,1001.07
2017-11-24T11:10:44.871Z,1001.1
2017-11-24T11:11:44.854Z,1001.12
2017-11-24T11:12:44.838Z,1001.05
2017-11-24T11:13:44.820Z,1001.03
2017-11-24T11:14:44.802Z,1001.02
2017-11-24T11:15:44.784Z,1001.09
2017-11-24T11:16:44.767Z,1001.07
2017-11-24T11:17:44.752Z,1001.13
2017-11-24T11:18:44.735Z,1001.16
2017-11-24T11:19:44.718Z,1001.2
2017-11-24T11:20:44.701Z,1001.21
2017-11-24T11:21:44.681Z,1001.24
2017-11-24T11:22:44.666Z,1001.26
2017-11-24T11:23:44.648Z,1001.3
2017-11-24T11:24:44.640Z,1001.32
2017-11-24T11:25:44.614Z,1001.3
2017-11-24T11:26:44.595Z,1001.29
2017-11-24T11:27:44.577Z,1001.25
2017-11-24T11:28:44.561Z,1001.26
2017-11-24T11:29:44.544Z,1001.31
2017-11-24T11:30:44.527Z,1001.34
2017-11-24T11:31:44.509Z,1001.34
2017-11-24T11:32:44.492Z,1001.35
2017-11-24T11:33:44.475Z,1001.35
2017-11-24T11:34:44.457Z,1001.33
2017-11-24T11:35:44.441Z,1001.31
2017-11-24T11:36:44.422Z,1001.34
2017-11-24T11:37:44.415Z,1001.38
2017-11-24T11:38:44.393Z,1001.41
2017-11-24T11:39:44.374Z,1001.4
2017-11-24T11:40:44.354Z,1001.36
2017-11-24T11:41:44.335Z,1001.44
2017-11-24T11:42:44.324Z,1001.42
2017-11-24T11:43:44.302Z,1001.48
2017-11-24T11:44:44.286Z,1001.42
2017-11-24T11:45:44.271Z,1001.44
2017-11-24T11:46:44.252Z,1001.49
2017-11-24T11:47:44.232Z,1001.48
2017-11-24T11:48:44.215Z,1001.44
2017-11-24T11:49:44.201Z,1001.44
2017-11-24T11:50:44.185Z,1001.46
2017-11-24T11:51:44.168Z,1001.44
2017-11-24T11:52:44.150Z,1001.48
2017-11-24T11:53:44.132Z,1001.45
2017-11-24T11:54:44.112Z,1001.53
2017-11-24T11:55:44.096Z,1001.56
2017-11-24T11:56:44.080Z,1001.57
2017-11-24T11:57:44.068Z,1001.57
2017-11-24T11:58:44.042Z,1001.63
2017-11-24T11:59:44.026Z,1001.6
2017-11-24T12:00:44.013Z,1001.66
2017-11-24T12:01:43.991Z,1001.67
2017-11-24T12:02:43.973Z,1001.66
2017-11-24T12:03:43.958Z,1001.69
2017-11-24T12:04:43.939Z,1001.65
2017-11-24T12:05:43.920Z,1001.64
2017-11-24T12:06:43.901Z,1001.72
2017-11-24T12:07:43.886Z,1001.73
2017-11-24T12:08:44.071Z,1001.76
2017-11-24T12:09:43.851Z,1001.75
2017-11-24T12:10:43.834Z,1001.73
2017-11-24T12:11:43.816Z,1001.73
2017-11-24T12:12:43.797Z,1001.69
2017-11-24T12:13:43.788Z,1001.75
2017-11-24T12:14:43.763Z,1001.77
2017-11-24T12:15:43.743Z,1001.82
2017-11-24T12:16:43.729Z,1001.82
2017-11-24T12:17:43.709Z,1001.82
2017-11-24T12:18:43.693Z,1001.86
2017-11-24T12:19:43.674Z,1001.86
2017-11-24T12:20:43.663Z,1001.89
2017-11-24T12:21:43.639Z,1001.9
2017-11-24T12:22:43.622Z,1001.9